createdAt,value
2022-11-03T00:04:29.248Z,8.70
2022-11-03T00:09:27.916Z,8.70
2022-11-03T00:14:25.824Z,8.70
2022-11-03T00:19:23.755Z,8.70
2022-11-03T00:24:23.036Z,8.60
2022-11-03T00:29:21.580Z,8.60
2022-11-03T00:34:19.618Z,8.50
2022-11-03T00:39:17.908Z,8.50
2022-11-03T00:44:18.556Z,8.50
2022-11-03T00:49:16.453Z,8.50
2022-11-03T00:54:14.384Z,8.50
2022-11-03T00:59:12.328Z,8.50
2022-11-03T01:04:35.808Z,8.50
2022-11-03T01:09:37.165Z,8.50
2022-11-03T01:14:38.062Z,8.50
2022-11-03T01:19:37.420Z,8.40
2022-11-03T01:24:38.817Z,8.40
2022-11-03T01:29:36.730Z,8.40
2022-11-03T01:34:36.824Z,8.40
2022-11-03T01:39:36.165Z,8.40
2022-11-03T01:44:36.730Z,8.40
2022-11-03T01:49:39.717Z,8.40
2022-11-03T01:54:41.343Z,8.40
2022-11-03T01:59:40.513Z,8.40
2022-11-03T02:04:38.814Z,8.40
2022-11-03T02:09:36.761Z,8.30
2022-11-03T02:14:39.005Z,8.10
2022-11-03T02:19:41.227Z,8.00
2022-11-03T02:24:53.814Z,7.80
2022-11-03T02:29:54.762Z,7.80
2022-11-03T02:35:01.872Z,7.80
2022-11-03T02:40:05.777Z,7.80
2022-11-03T02:45:13.223Z,7.80
2022-11-03T02:50:16.852Z,7.80
2022-11-03T02:55:20.059Z,7.70
2022-11-03T03:00:20.017Z,7.70
2022-11-03T03:05:20.369Z,7.70
2022-11-03T03:10:20.954Z,7.60
2022-11-03T03:15:24.150Z,7.60
2022-11-03T03:20:27.443Z,7.60
2022-11-03T03:25:32.137Z,7.50
2022-11-03T03:30:33.582Z,7.60
2022-11-03T03:35:33.818Z,7.80
2022-11-03T03:40:38.045Z,7.80
2022-11-03T03:45:37.940Z,7.80
2022-11-03T03:50:39.488Z,7.70
2022-11-03T03:55:44.156Z,7.80
2022-11-03T04:00:43.948Z,7.90
2022-11-03T04:05:42.488Z,7.80
2022-11-03T04:10:40.862Z,7.80
2022-11-03T04:15:56.283Z,7.80
2022-11-03T04:21:13.538Z,7.80
2022-11-03T04:26:14.077Z,7.90
2022-11-03T04:31:14.176Z,8.00
2022-11-03T04:36:18.150Z,8.00
2022-11-03T04:41:18.338Z,7.90
2022-11-03T04:46:18.645Z,8.00
2022-11-03T04:51:20.202Z,8.00
2022-11-03T04:56:21.766Z,8.00
2022-11-03T05:01:24.394Z,7.90
2022-11-03T05:06:27.395Z,7.90
2022-11-03T05:11:32.298Z,7.80
2022-11-03T05:16:30.565Z,7.60
2022-11-03T05:21:30.282Z,7.50
2022-11-03T05:26:32.015Z,7.40
2022-11-03T05:31:31.710Z,7.40
2022-11-03T05:36:34.168Z,7.30
2022-11-03T05:41:32.847Z,7.30
2022-11-03T05:46:35.059Z,7.30
2022-11-03T05:51:39.001Z,7.30
2022-11-03T05:56:36.975Z,7.20
2022-11-03T06:01:38.085Z,7.20
2022-11-03T06:06:39.868Z,7.20
2022-11-03T06:11:38.675Z,7.20
2022-11-03T06:16:40.997Z,7.30
2022-11-03T06:21:44.394Z,7.30
2022-11-03T06:26:43.715Z,7.50
2022-11-03T06:31:44.590Z,7.60
2022-11-03T06:36:43.919Z,7.70
2022-11-03T06:41:44.940Z,7.80
2022-11-03T06:46:44.205Z,7.80
2022-11-03T06:51:43.487Z,7.80
2022-11-03T06:56:42.827Z,7.70
2022-11-03T07:01:41.023Z,7.70
2022-11-03T07:06:39.077Z,7.60
2022-11-03T07:11:46.458Z,7.70
2022-11-03T07:16:47.215Z,7.70
2022-11-03T07:21:50.071Z,7.80
2022-11-03T07:26:57.739Z,7.80
2022-11-03T07:31:58.145Z,8.00
2022-11-03T07:37:00.502Z,8.30
2022-11-03T07:41:59.806Z,8.80
2022-11-03T07:47:00.705Z,9.20
2022-11-03T07:52:00.370Z,9.50
2022-11-03T07:57:01.543Z,9.60
2022-11-03T08:02:03.321Z,9.70
2022-11-03T08:07:01.501Z,9.80
2022-11-03T08:12:03.411Z,9.90
2022-11-03T08:17:01.331Z,9.60
2022-11-03T08:22:00.153Z,9.60
2022-11-03T08:26:58.086Z,9.70
2022-11-03T08:31:58.043Z,10.00
2022-11-03T08:36:56.012Z,10.30
2022-11-03T08:41:53.917Z,10.30
2022-11-03T08:46:51.859Z,10.80
2022-11-03T08:51:53.574Z,11.20
2022-11-03T08:56:51.519Z,11.60
2022-11-03T09:01:54.153Z,12.40
2022-11-03T09:06:55.684Z,13.60
2022-11-03T09:11:53.563Z,13.60
2022-11-03T09:16:51.581Z,13.70
2022-11-03T09:21:49.522Z,14.20
2022-11-03T09:26:50.999Z,14.50
2022-11-03T09:31:49.095Z,14.40
2022-11-03T09:36:50.743Z,14.50
2022-11-03T09:41:59.101Z,15.30
2022-11-03T09:46:58.636Z,16.10
2022-11-03T09:52:01.668Z,17.40
2022-11-03T09:57:12.439Z,19.00
2022-11-03T10:02:20.757Z,20.10
2022-11-03T10:07:18.868Z,20.20
2022-11-03T10:12:18.562Z,19.60
2022-11-03T10:17:19.665Z,20.60
2022-11-03T10:22:17.917Z,21.60
2022-11-03T10:27:25.419Z,21.40
2022-11-03T10:32:31.270Z,20.30
2022-11-03T10:37:29.463Z,18.10
2022-11-03T10:42:35.521Z,18.00
2022-11-03T10:47:34.989Z,17.80
2022-11-03T10:57:38.848Z,16.20
2022-11-03T11:02:43.833Z,15.00
2022-11-03T11:07:44.207Z,14.40
2022-11-03T11:13:05.846Z,14.30
2022-11-03T11:18:04.084Z,14.20
2022-11-03T11:23:48.293Z,14.00
2022-11-03T11:29:08.135Z,13.80
2022-11-03T11:34:43.208Z,13.70
2022-11-03T11:39:45.208Z,13.60
2022-11-03T11:45:03.966Z,13.60
2022-11-03T11:50:23.602Z,13.60
2022-11-03T11:55:29.659Z,13.50
2022-11-03T12:00:30.860Z,13.50
2022-11-03T12:05:32.794Z,13.60
2022-11-03T12:10:32.163Z,13.60
2022-11-03T12:15:49.243Z,13.80
2022-11-03T12:20:50.852Z,13.90
2022-11-03T12:25:48.766Z,13.80
2022-11-03T12:30:47.792Z,13.80
2022-11-03T12:35:45.767Z,13.80
2022-11-03T12:40:45.298Z,13.90
2022-11-03T12:45:43.501Z,13.90
2022-11-03T12:50:42.048Z,13.90
2022-11-03T12:55:43.645Z,13.80
2022-11-03T13:00:49.877Z,13.80
2022-11-03T13:05:51.881Z,13.70
2022-11-03T13:10:49.781Z,13.70
2022-11-03T13:15:49.297Z,13.80
2022-11-03T13:20:47.309Z,14.00
2022-11-03T13:25:46.519Z,14.20
2022-11-03T13:30:44.475Z,14.20
2022-11-03T13:35:43.768Z,14.20
2022-11-03T13:40:57.279Z,14.30
2022-11-03T13:46:01.105Z,14.20
2022-11-03T13:51:00.630Z,14.40
2022-11-03T13:56:03.172Z,14.50
2022-11-03T14:01:06.079Z,14.40
2022-11-03T14:06:05.833Z,14.40
2022-11-03T14:11:24.347Z,14.40
2022-11-03T14:16:22.335Z,14.30
2022-11-03T14:21:21.573Z,14.40
2022-11-03T14:26:38.651Z,14.30
2022-11-03T14:31:38.481Z,14.20
2022-11-03T14:36:37.863Z,14.00
2022-11-03T14:41:53.363Z,13.90
2022-11-03T14:46:51.276Z,13.80
2022-11-03T14:51:51.028Z,13.80
2022-11-03T14:56:48.928Z,13.70
2022-11-03T15:01:47.602Z,13.70
2022-11-03T15:06:45.992Z,13.60
2022-11-03T15:11:45.699Z,13.50
2022-11-03T15:16:45.959Z,13.50
2022-11-03T15:21:45.995Z,13.40
2022-11-03T15:26:45.337Z,13.30
2022-11-03T15:31:47.954Z,13.30
2022-11-03T15:36:49.063Z,13.20
2022-11-03T15:41:48.346Z,13.20
2022-11-03T15:46:49.024Z,13.10
2022-11-03T15:51:46.935Z,13.10
2022-11-03T15:56:49.058Z,13.00
2022-11-03T16:01:47.097Z,12.90
2022-11-03T16:12:04.572Z,12.90
2022-11-03T16:17:02.488Z,12.90
2022-11-03T16:22:00.404Z,12.80
2022-11-03T16:27:02.835Z,12.80
2022-11-03T16:32:02.221Z,12.60
2022-11-03T16:37:00.718Z,12.60
2022-11-03T16:41:58.635Z,12.60
2022-11-03T16:46:56.518Z,12.60
2022-11-03T16:51:58.635Z,12.50
2022-11-03T16:56:56.542Z,12.50
2022-11-03T17:01:55.399Z,12.40
2022-11-03T17:06:53.452Z,12.40
2022-11-03T17:11:52.757Z,12.40
2022-11-03T17:16:50.649Z,12.20
2022-11-03T17:21:48.541Z,12.10
2022-11-03T17:26:55.611Z,12.20
2022-11-03T17:31:53.577Z,12.10
2022-11-03T17:36:52.310Z,12.10
2022-11-03T17:41:52.346Z,12.10
2022-11-03T17:46:50.523Z,12.00
2022-11-03T17:51:48.459Z,12.00
2022-11-03T17:56:46.430Z,12.10
2022-11-03T18:01:45.955Z,12.10
2022-11-03T18:06:45.387Z,12.10
2022-11-03T18:12:01.702Z,12.10
2022-11-03T18:17:00.947Z,12.00
2022-11-03T18:21:59.021Z,12.00
2022-11-03T18:26:56.985Z,12.00
2022-11-03T18:31:54.903Z,12.00
2022-11-03T18:36:55.217Z,12.10
2022-11-03T18:41:53.393Z,12.00
2022-11-03T18:46:52.341Z,12.00
2022-11-03T18:51:59.201Z,12.10
2022-11-03T18:57:02.141Z,12.10
2022-11-03T19:02:16.010Z,12.00
2022-11-03T19:07:17.289Z,12.00
2022-11-03T19:12:17.005Z,12.00
2022-11-03T19:17:25.158Z,12.00
2022-11-03T19:22:24.572Z,11.90
2022-11-03T19:27:27.167Z,11.80
2022-11-03T19:32:29.295Z,11.80
2022-11-03T19:37:35.174Z,11.70
2022-11-03T19:42:36.899Z,11.70
2022-11-03T19:47:57.563Z,11.70
2022-11-03T19:53:06.887Z,11.70
2022-11-03T19:58:14.118Z,11.60
2022-11-03T20:03:14.690Z,11.70
2022-11-03T20:08:18.098Z,11.70
2022-11-03T20:13:19.821Z,11.70
2022-11-03T20:18:18.195Z,11.70
2022-11-03T20:23:19.864Z,11.60
2022-11-03T20:28:21.682Z,11.50
2022-11-03T20:33:23.264Z,11.50
2022-11-03T20:38:22.789Z,11.50
2022-11-03T20:43:26.754Z,11.40
2022-11-03T20:48:26.417Z,11.40
2022-11-03T20:53:26.444Z,11.30
2022-11-03T20:58:27.850Z,11.30
2022-11-03T21:03:57.611Z,11.40
2022-11-03T21:08:48.093Z,11.30
2022-11-03T21:13:47.397Z,11.20
2022-11-03T21:19:02.587Z,11.20
2022-11-03T21:24:00.559Z,11.10
2022-11-03T21:28:59.840Z,11.00
2022-11-03T21:33:57.790Z,11.00
2022-11-03T21:38:55.784Z,11.00
2022-11-03T21:44:11.571Z,11.00
2022-11-03T21:49:30.337Z,10.90
2022-11-03T21:54:28.295Z,10.90
2022-11-03T21:59:27.168Z,10.80
2022-11-03T22:04:26.485Z,10.80
2022-11-03T22:09:25.473Z,10.70
2022-11-03T22:14:26.548Z,10.60
2022-11-03T22:19:51.929Z,10.60
2022-11-03T22:25:07.339Z,10.60
2022-11-03T22:30:23.609Z,10.60
2022-11-03T22:35:42.718Z,10.50
2022-11-03T22:40:59.485Z,10.50
2022-11-03T22:45:57.684Z,10.40
2022-11-03T22:51:02.265Z,10.40
2022-11-03T22:56:01.619Z,10.40
2022-11-03T23:01:04.058Z,10.50
2022-11-03T23:06:04.811Z,10.50
2022-11-03T23:11:08.339Z,10.50
2022-11-03T23:16:14.197Z,10.50
2022-11-03T23:21:16.529Z,10.50
2022-11-03T23:26:15.448Z,10.40
2022-11-03T23:31:16.635Z,10.40
2022-11-03T23:36:17.613Z,10.50
2022-11-03T23:41:16.806Z,10.50
2022-11-03T23:46:34.272Z,10.50
2022-11-03T23:51:34.858Z,10.40
2022-11-03T23:56:55.225Z,10.40
